Time;durP1;ratioP1;P1;durP2;ratioP2;P2;SDS_P1;SDS_P2;PMS_P1;PMS_P2;Temp;Humidity;BMP_temperature;BMP_pressure;BME280_temperature;BME280_humidity;BME280_pressure;Samples;Min_cycle;Max_cycle;Signal;HPM_P1;HPM_P2
2022/10/27 00:00:19;;;;;;;3.45;1.90;;;;;;;;;;5059383;28;20040;-69
2022/10/27 00:02:45;;;;;;;7.82;1.90;;;;;;;;;;5075492;28;20887;-69
2022/10/27 00:05:11;;;;;;;11.15;2.10;;;;;;;;;;5058029;28;20122;-69
2022/10/27 00:07:38;;;;;;;3.85;1.48;;;;;;;;;;5075703;28;20181;-69
2022/10/27 00:10:05;;;;;;;3.80;1.98;;;;;;;;;;5076815;28;20071;-69
2022/10/27 00:12:32;;;;;;;3.67;1.58;;;;;;;;;;5075937;28;20831;-70
2022/10/27 00:14:58;;;;;;;2.13;1.42;;;;;;;;;;5077394;28;20048;-69
2022/10/27 00:17:24;;;;;;;3.53;1.73;;;;;;;;;;5073581;28;20037;-69
2022/10/27 00:19:50;;;;;;;2.55;1.75;;;;;;;;;;5076655;28;20052;-69
2022/10/27 00:22:17;;;;;;;3.35;1.92;;;;;;;;;;5072226;28;20519;-69
2022/10/27 00:24:43;;;;;;;5.03;2.35;;;;;;;;;;5062813;28;20403;-69
2022/10/27 00:27:09;;;;;;;9.43;2.17;;;;;;;;;;5076435;28;20100;-69
2022/10/27 00:29:35;;;;;;;4.15;1.80;;;;;;;;;;5076322;28;20048;-69
2022/10/27 00:32:01;;;;;;;6.50;2.47;;;;;;;;;;5074649;28;20044;-68
2022/10/27 00:34:27;;;;;;;7.03;2.63;;;;;;;;;;5075473;28;20028;-68
2022/10/27 00:36:53;;;;;;;2.78;2.05;;;;;;;;;;5059483;28;20061;-68
2022/10/27 00:39:19;;;;;;;2.40;1.52;;;;;;;;;;5039158;28;20037;-68
2022/10/27 00:41:45;;;;;;;2.53;1.90;;;;;;;;;;5071067;28;20635;-68
2022/10/27 00:44:29;;;;;;;3.53;1.42;;;;;;;;;;5074505;28;20053;-68
2022/10/27 00:46:56;;;;;;;2.40;1.83;;;;;;;;;;5076663;28;20040;-68
2022/10/27 00:49:23;;;;;;;4.97;1.67;;;;;;;;;;5057735;28;20045;-68
2022/10/27 00:52:12;;;;;;;3.17;1.85;;;;;;;;;;5056173;28;20037;-68
2022/10/27 00:54:40;;;;;;;3.05;1.65;;;;;;;;;;5074130;28;20571;-67
2022/10/27 00:57:08;;;;;;;2.35;1.40;;;;;;;;;;5076617;28;20044;-68
2022/10/27 00:59:35;;;;;;;4.97;1.83;;;;;;;;;;5076144;28;20040;-68
2022/10/27 01:02:01;;;;;;;4.28;2.08;;;;;;;;;;5058883;28;20044;-68
2022/10/27 01:04:36;;;;;;;5.85;2.05;;;;;;;;;;5078475;28;20044;-68
2022/10/27 01:07:03;;;;;;;3.53;1.90;;;;;;;;;;5080401;28;20033;-68
2022/10/27 01:09:29;;;;;;;6.68;1.85;;;;;;;;;;5078124;28;20129;-68
2022/10/27 01:11:56;;;;;;;7.13;2.50;;;;;;;;;;5079176;28;20527;-68
2022/10/27 01:14:22;;;;;;;4.13;1.88;;;;;;;;;;5092717;28;20076;-68
2022/10/27 01:17:07;;;;;;;5.78;1.75;;;;;;;;;;5078838;28;20036;-69
2022/10/27 01:19:39;;;;;;;2.97;1.85;;;;;;;;;;5079343;28;20041;-68
2022/10/27 01:22:14;;;;;;;3.88;1.60;;;;;;;;;;5078494;28;20049;-68
2022/10/27 01:25:00;;;;;;;5.57;2.33;;;;;;;;;;5059498;28;20142;-68
2022/10/27 01:27:35;;;;;;;4.47;1.88;;;;;;;;;;5072470;28;20065;-68
2022/10/27 01:30:09;;;;;;;3.20;1.85;;;;;;;;;;5076093;28;20048;-68
2022/10/27 01:32:35;;;;;;;2.25;1.33;;;;;;;;;;5077176;28;20063;-69
2022/10/27 01:35:01;;;;;;;6.65;2.45;;;;;;;;;;5076672;28;20040;-69
2022/10/27 01:37:27;;;;;;;4.30;1.73;;;;;;;;;;5076629;28;20050;-69
2022/10/27 01:39:57;;;;;;;5.47;1.83;;;;;;;;;;5060387;28;20033;-69
2022/10/27 01:42:34;;;;;;;4.65;1.90;;;;;;;;;;5066949;28;20144;-69
2022/10/27 01:45:02;;;;;;;4.38;1.88;;;;;;;;;;5078373;28;20045;-69
2022/10/27 01:47:29;;;;;;;8.57;2.20;;;;;;;;;;5052453;28;20125;-69
2022/10/27 01:49:55;;;;;;;4.05;1.70;;;;;;;;;;5077676;28;20044;-68
2022/10/27 01:52:40;;;;;;;6.22;2.15;;;;;;;;;;5066719;28;20139;-69
2022/10/27 01:55:07;;;;;;;5.95;2.53;;;;;;;;;;5079122;28;20101;-69
2022/10/27 01:57:42;;;;;;;5.78;2.53;;;;;;;;;;5077400;28;20139;-70
2022/10/27 02:00:08;;;;;;;4.40;1.90;;;;;;;;;;5052172;28;20045;-69
2022/10/27 02:02:48;;;;;;;4.35;1.80;;;;;;;;;;5067862;28;20040;-69
2022/10/27 02:05:24;;;;;;;5.53;1.77;;;;;;;;;;5054422;28;20680;-69
2022/10/27 02:07:54;;;;;;;3.42;1.63;;;;;;;;;;5077271;28;20142;-68
2022/10/27 02:10:35;;;;;;;6.97;2.35;;;;;;;;;;5076896;28;20146;-69
2022/10/27 02:13:03;;;;;;;4.85;2.00;;;;;;;;;;5067466;28;20826;-68
2022/10/27 02:15:29;;;;;;;5.22;2.13;;;;;;;;;;5069742;28;20067;-68
2022/10/27 02:17:58;;;;;;;3.42;1.70;;;;;;;;;;5059466;28;20045;-68
2022/10/27 02:20:26;;;;;;;3.58;1.65;;;;;;;;;;5052698;28;20087;-68
2022/10/27 02:22:53;;;;;;;2.28;1.60;;;;;;;;;;5077829;28;22386;-68
2022/10/27 02:25:21;;;;;;;4.22;2.53;;;;;;;;;;5077733;28;20044;-68
2022/10/27 02:27:49;;;;;;;4.88;2.20;;;;;;;;;;5078265;28;20512;-69
2022/10/27 02:30:15;;;;;;;7.53;1.98;;;;;;;;;;5077908;28;20048;-69
2022/10/27 02:32:42;;;;;;;5.93;2.13;;;;;;;;;;5077090;28;20056;-68
2022/10/27 02:35:10;;;;;;;5.60;1.88;;;;;;;;;;5077404;28;20506;-68
2022/10/27 02:37:38;;;;;;;3.72;1.98;;;;;;;;;;5077765;28;20056;-69
2022/10/27 02:40:04;;;;;;;5.65;2.25;;;;;;;;;;5067496;28;20052;-68
2022/10/27 02:42:30;;;;;;;5.22;2.10;;;;;;;;;;5053079;28;20129;-70
2022/10/27 02:44:56;;;;;;;4.70;2.42;;;;;;;;;;5068949;28;20040;-68
2022/10/27 02:47:22;;;;;;;5.13;3.10;;;;;;;;;;5052967;28;20032;-68
2022/10/27 02:49:49;;;;;;;6.43;2.42;;;;;;;;;;5076516;28;20511;-69
2022/10/27 02:52:15;;;;;;;3.85;2.20;;;;;;;;;;5077425;28;20083;-69
2022/10/27 02:54:41;;;;;;;4.50;1.83;;;;;;;;;;5077169;28;20041;-68
2022/10/27 02:57:08;;;;;;;5.95;2.05;;;;;;;;;;5067803;28;20541;-68
2022/10/27 02:59:34;;;;;;;5.78;2.67;;;;;;;;;;5053909;28;20094;-69
2022/10/27 03:02:00;;;;;;;4.13;2.10;;;;;;;;;;5077573;28;20446;-69
2022/10/27 03:04:26;;;;;;;7.95;2.53;;;;;;;;;;5075373;28;20040;-69
2022/10/27 03:06:52;;;;;;;3.78;2.03;;;;;;;;;;5054889;28;20041;-69
2022/10/27 03:09:19;;;;;;;5.22;2.72;;;;;;;;;;5075332;28;20869;-69
2022/10/27 03:11:45;;;;;;;8.15;2.10;;;;;;;;;;5052357;28;20117;-69
2022/10/27 03:14:11;;;;;;;5.45;2.10;;;;;;;;;;5074753;28;20564;-69
2022/10/27 03:16:37;;;;;;;4.38;1.80;;;;;;;;;;5057682;28;20498;-68
2022/10/27 03:19:03;;;;;;;5.95;2.38;;;;;;;;;;5055525;28;20041;-69
2022/10/27 03:21:29;;;;;;;4.75;1.90;;;;;;;;;;5074897;28;20279;-69
2022/10/27 03:23:55;;;;;;;7.40;2.75;;;;;;;;;;5074670;28;20044;-69
2022/10/27 03:26:21;;;;;;;3.85;1.85;;;;;;;;;;5076277;28;20033;-69
2022/10/27 03:28:47;;;;;;;3.85;2.45;;;;;;;;;;5074781;28;20040;-69
2022/10/27 03:31:13;;;;;;;3.60;1.77;;;;;;;;;;5051605;28;20040;-69
2022/10/27 03:33:39;;;;;;;4.30;2.10;;;;;;;;;;5054627;28;20060;-69
2022/10/27 03:36:06;;;;;;;5.03;2.20;;;;;;;;;;5076891;28;20045;-69
2022/10/27 03:38:32;;;;;;;5.72;2.45;;;;;;;;;;5056098;28;20036;-69
2022/10/27 03:40:58;;;;;;;4.30;2.42;;;;;;;;;;5076024;28;20094;-69
2022/10/27 03:43:24;;;;;;;6.05;2.33;;;;;;;;;;5076653;28;20049;-69
2022/10/27 03:45:51;;;;;;;5.07;2.40;;;;;;;;;;5073940;28;20497;-69
2022/10/27 03:48:17;;;;;;;7.80;2.67;;;;;;;;;;5052522;28;20155;-69
2022/10/27 03:50:47;;;;;;;4.20;2.05;;;;;;;;;;5059248;28;20098;-69
2022/10/27 03:53:14;;;;;;;8.70;2.50;;;;;;;;;;5049944;28;20045;-68
2022/10/27 03:55:40;;;;;;;5.97;2.65;;;;;;;;;;5051444;28;20036;-68
2022/10/27 03:58:06;;;;;;;4.78;1.92;;;;;;;;;;5052247;28;20056;-69
2022/10/27 04:00:32;;;;;;;4.63;2.47;;;;;;;;;;5074368;28;20044;-69
2022/10/27 04:02:58;;;;;;;4.75;2.35;;;;;;;;;;5073099;28;20041;-69
2022/10/27 04:05:24;;;;;;;6.95;3.30;;;;;;;;;;5058001;28;20037;-69
2022/10/27 04:07:51;;;;;;;7.70;2.28;;;;;;;;;;5044595;28;20041;-68
2022/10/27 04:10:17;;;;;;;7.45;2.58;;;;;;;;;;5075568;28;20896;-69
2022/10/27 04:12:54;;;;;;;5.53;2.50;;;;;;;;;;5076650;28;20044;-69
2022/10/27 04:15:20;;;;;;;7.53;2.58;;;;;;;;;;5075815;28;20044;-69
2022/10/27 04:17:46;;;;;;;4.40;2.13;;;;;;;;;;5074585;28;20040;-69
2022/10/27 04:20:13;;;;;;;7.03;2.90;;;;;;;;;;5075564;28;20055;-68
2022/10/27 04:22:39;;;;;;;6.80;2.85;;;;;;;;;;5075267;28;20555;-69
2022/10/27 04:25:06;;;;;;;7.47;2.58;;;;;;;;;;5058144;28;20155;-69
2022/10/27 04:27:32;;;;;;;5.10;2.95;;;;;;;;;;5056833;28;20516;-69
2022/10/27 04:29:58;;;;;;;5.20;2.70;;;;;;;;;;5074417;28;20052;-69
2022/10/27 04:32:24;;;;;;;7.25;2.25;;;;;;;;;;5073880;28;20284;-69
2022/10/27 04:34:50;;;;;;;4.72;2.25;;;;;;;;;;5058156;28;20032;-69
2022/10/27 04:37:16;;;;;;;5.43;2.28;;;;;;;;;;5051419;28;20117;-69
2022/10/27 04:39:42;;;;;;;7.10;2.08;;;;;;;;;;5051522;28;20098;-69
2022/10/27 04:42:10;;;;;;;6.75;2.63;;;;;;;;;;5072394;28;20568;-69
2022/10/27 04:44:36;;;;;;;5.07;2.47;;;;;;;;;;5050800;28;20033;-68
2022/10/27 04:47:02;;;;;;;6.55;2.60;;;;;;;;;;5051355;28;20033;-69
2022/10/27 04:49:29;;;;;;;5.70;2.08;;;;;;;;;;5072279;28;20118;-69
2022/10/27 04:51:55;;;;;;;6.90;2.53;;;;;;;;;;5076359;28;20218;-68
2022/10/27 04:54:21;;;;;;;5.97;2.47;;;;;;;;;;5066696;28;20083;-69
2022/10/27 04:56:47;;;;;;;6.45;2.75;;;;;;;;;;5075635;28;20627;-69
2022/10/27 04:59:13;;;;;;;5.35;2.20;;;;;;;;;;5064870;28;20506;-69
2022/10/27 05:01:40;;;;;;;5.25;2.38;;;;;;;;;;5050567;28;20593;-69
2022/10/27 05:04:06;;;;;;;3.72;2.47;;;;;;;;;;5075300;28;20047;-69
2022/10/27 05:06:32;;;;;;;4.47;2.15;;;;;;;;;;5075782;28;20033;-69
2022/10/27 05:08:58;;;;;;;8.55;2.92;;;;;;;;;;5052456;28;20087;-69
2022/10/27 05:11:24;;;;;;;5.32;2.38;;;;;;;;;;5074807;28;20033;-69
2022/10/27 05:13:50;;;;;;;7.47;3.00;;;;;;;;;;5043013;28;20045;-69
2022/10/27 05:16:17;;;;;;;5.95;2.63;;;;;;;;;;5074458;28;20045;-69
2022/10/27 05:18:43;;;;;;;6.50;2.60;;;;;;;;;;5049066;28;20091;-69
2022/10/27 05:21:09;;;;;;;9.05;2.60;;;;;;;;;;5077123;28;20037;-68
2022/10/27 05:23:35;;;;;;;5.68;2.40;;;;;;;;;;5071712;28;20103;-69
2022/10/27 05:26:02;;;;;;;13.57;4.13;;;;;;;;;;5074659;28;20132;-70
2022/10/27 05:28:28;;;;;;;4.07;2.20;;;;;;;;;;5056745;28;20055;-71
2022/10/27 05:30:57;;;;;;;4.15;2.28;;;;;;;;;;5051394;28;20044;-71
2022/10/27 05:33:24;;;;;;;4.68;2.60;;;;;;;;;;5055595;28;20667;-70
2022/10/27 05:35:50;;;;;;;6.50;2.55;;;;;;;;;;5055876;28;20032;-67
2022/10/27 05:38:16;;;;;;;7.63;3.00;;;;;;;;;;5074171;28;20052;-67
2022/10/27 05:40:43;;;;;;;7.55;2.95;;;;;;;;;;5054531;28;20048;-69
2022/10/27 05:43:09;;;;;;;8.50;3.17;;;;;;;;;;5074165;28;20068;-68
2022/10/27 05:45:36;;;;;;;9.32;2.72;;;;;;;;;;5069045;28;20087;-68
2022/10/27 05:48:03;;;;;;;13.07;3.53;;;;;;;;;;5075460;28;20055;-68
2022/10/27 05:50:30;;;;;;;7.47;2.70;;;;;;;;;;5078790;28;20036;-68
2022/10/27 05:52:56;;;;;;;5.40;2.92;;;;;;;;;;5078456;28;20044;-68
2022/10/27 05:55:23;;;;;;;6.07;2.78;;;;;;;;;;5080770;28;20514;-68
2022/10/27 05:57:59;;;;;;;8.02;2.60;;;;;;;;;;5079837;28;20036;-68
2022/10/27 06:00:26;;;;;;;4.85;2.50;;;;;;;;;;5079409;28;20040;-68
2022/10/27 06:02:55;;;;;;;7.65;3.80;;;;;;;;;;5079145;28;20092;-68
2022/10/27 06:05:21;;;;;;;6.53;2.90;;;;;;;;;;5062557;28;20040;-68
2022/10/27 06:07:48;;;;;;;8.98;3.60;;;;;;;;;;5077729;28;20047;-68
2022/10/27 06:10:14;;;;;;;7.47;3.85;;;;;;;;;;5080062;28;20110;-68
2022/10/27 06:12:40;;;;;;;7.10;2.55;;;;;;;;;;5079655;28;20517;-67
2022/10/27 06:15:06;;;;;;;6.60;2.65;;;;;;;;;;5065716;28;20557;-67
2022/10/27 06:17:32;;;;;;;5.18;2.33;;;;;;;;;;5079005;28;20045;-68
2022/10/27 06:19:58;;;;;;;6.95;2.83;;;;;;;;;;5077753;28;20040;-68
2022/10/27 06:22:24;;;;;;;7.20;3.05;;;;;;;;;;5061029;28;20049;-68
2022/10/27 06:24:50;;;;;;;6.43;2.58;;;;;;;;;;5051461;28;20912;-68
2022/10/27 06:27:16;;;;;;;9.65;3.47;;;;;;;;;;5076224;28;20091;-72
2022/10/27 06:29:43;;;;;;;8.10;2.78;;;;;;;;;;5077073;28;20133;-68
2022/10/27 06:32:09;;;;;;;7.20;2.47;;;;;;;;;;5078408;28;20072;-69
2022/10/27 06:34:35;;;;;;;10.43;3.40;;;;;;;;;;5079492;28;20523;-68
2022/10/27 06:37:04;;;;;;;6.68;2.67;;;;;;;;;;5078211;28;20052;-69
2022/10/27 06:39:30;;;;;;;7.70;3.53;;;;;;;;;;5078310;28;20107;-68
2022/10/27 06:41:58;;;;;;;9.98;3.05;;;;;;;;;;5053402;28;20041;-69
2022/10/27 06:44:24;;;;;;;9.48;2.42;;;;;;;;;;5078570;28;20568;-69
2022/10/27 06:46:50;;;;;;;7.60;2.50;;;;;;;;;;5076440;28;20541;-70
2022/10/27 06:49:16;;;;;;;5.72;3.15;;;;;;;;;;5068555;28;20041;-69
2022/10/27 06:51:42;;;;;;;7.13;2.75;;;;;;;;;;5076941;28;20044;-69
2022/10/27 06:54:09;;;;;;;6.68;2.95;;;;;;;;;;5077103;28;20094;-68
2022/10/27 06:56:35;;;;;;;7.90;3.70;;;;;;;;;;5070244;28;20050;-73
2022/10/27 06:59:01;;;;;;;26.30;6.50;;;;;;;;;;5090394;27;20041;-68
2022/10/27 07:01:27;;;;;;;7.28;4.00;;;;;;;;;;5050651;28;20051;-69
2022/10/27 07:03:53;;;;;;;16.92;3.53;;;;;;;;;;5059837;28;20066;-69
2022/10/27 07:06:23;;;;;;;13.38;4.10;;;;;;;;;;5078510;28;21156;-69
2022/10/27 07:08:51;;;;;;;11.25;3.83;;;;;;;;;;5077298;28;20040;-69
2022/10/27 07:11:17;;;;;;;9.38;3.72;;;;;;;;;;5049383;28;20623;-69
2022/10/27 07:13:43;;;;;;;14.43;3.38;;;;;;;;;;5077369;28;20099;-69
2022/10/27 07:16:09;;;;;;;4.85;3.33;;;;;;;;;;5052736;28;20144;-69
2022/10/27 07:18:37;;;;;;;6.78;3.00;;;;;;;;;;5076523;28;20040;-69
2022/10/27 07:21:04;;;;;;;9.65;3.17;;;;;;;;;;5067725;28;22260;-69
2022/10/27 07:23:30;;;;;;;5.40;3.13;;;;;;;;;;5076309;28;20036;-69
2022/10/27 07:25:56;;;;;;;8.52;3.45;;;;;;;;;;5077847;28;20050;-69
2022/10/27 07:28:22;;;;;;;6.30;2.88;;;;;;;;;;5075000;28;20071;-69
2022/10/27 07:30:48;;;;;;;7.90;3.17;;;;;;;;;;5052442;28;20123;-69
2022/10/27 07:33:14;;;;;;;10.27;3.03;;;;;;;;;;5052172;28;20598;-69
2022/10/27 07:35:40;;;;;;;7.80;2.90;;;;;;;;;;5052777;28;20971;-69
2022/10/27 07:38:07;;;;;;;6.57;2.58;;;;;;;;;;5073587;28;20584;-69
2022/10/27 07:40:33;;;;;;;7.50;3.38;;;;;;;;;;5052683;28;20098;-69
2022/10/27 07:43:00;;;;;;;6.20;3.63;;;;;;;;;;5078097;28;20654;-69
2022/10/27 07:45:27;;;;;;;5.95;2.80;;;;;;;;;;5074095;28;20087;-69
2022/10/27 07:47:54;;;;;;;4.75;2.67;;;;;;;;;;5074348;28;20570;-69
2022/10/27 07:50:21;;;;;;;13.65;3.10;;;;;;;;;;5076495;28;20037;-69
2022/10/27 07:52:49;;;;;;;7.45;2.65;;;;;;;;;;5058165;28;20040;-68
2022/10/27 07:55:16;;;;;;;7.60;3.38;;;;;;;;;;5043758;28;20052;-69
2022/10/27 07:57:42;;;;;;;6.30;3.05;;;;;;;;;;5068465;28;20043;-70
2022/10/27 08:00:10;;;;;;;8.65;2.72;;;;;;;;;;5075959;28;20040;-69
2022/10/27 08:02:36;;;;;;;11.57;3.28;;;;;;;;;;5077373;28;20041;-69
2022/10/27 08:05:02;;;;;;;7.75;2.55;;;;;;;;;;5050457;28;20050;-68
2022/10/27 08:07:28;;;;;;;7.18;2.78;;;;;;;;;;5056218;28;20110;-69
2022/10/27 08:09:54;;;;;;;9.27;3.45;;;;;;;;;;5076887;28;20152;-69
2022/10/27 08:12:21;;;;;;;9.68;2.95;;;;;;;;;;5075411;28;20036;-69
2022/10/27 08:14:47;;;;;;;6.38;3.08;;;;;;;;;;5066918;28;20048;-69
2022/10/27 08:17:13;;;;;;;7.65;3.63;;;;;;;;;;5072795;28;20040;-68
2022/10/27 08:19:39;;;;;;;4.05;2.45;;;;;;;;;;5075370;28;20036;-69
2022/10/27 08:22:05;;;;;;;5.90;2.88;;;;;;;;;;5073456;28;20044;-69
2022/10/27 08:24:31;;;;;;;4.68;2.65;;;;;;;;;;5075277;28;20049;-69
2022/10/27 08:26:58;;;;;;;6.28;2.55;;;;;;;;;;5075006;28;20044;-69
2022/10/27 08:29:25;;;;;;;4.82;2.80;;;;;;;;;;5066014;28;20044;-69
2022/10/27 08:31:51;;;;;;;7.90;3.20;;;;;;;;;;5055822;28;20128;-69
2022/10/27 08:34:17;;;;;;;8.15;2.75;;;;;;;;;;5075528;28;20059;-69
2022/10/27 08:36:43;;;;;;;7.47;2.40;;;;;;;;;;5076203;28;20041;-69
2022/10/27 08:39:09;;;;;;;8.55;3.28;;;;;;;;;;5050051;28;20130;-69
2022/10/27 08:41:44;;;;;;;6.82;2.22;;;;;;;;;;5077042;28;20044;-69
2022/10/27 08:44:22;;;;;;;8.70;2.28;;;;;;;;;;5073336;28;20045;-69
2022/10/27 08:46:48;;;;;;;4.15;2.63;;;;;;;;;;5056725;28;20048;-69
2022/10/27 08:49:30;;;;;;;6.57;3.55;;;;;;;;;;5063820;28;20051;-69
2022/10/27 08:52:05;;;;;;;7.47;2.90;;;;;;;;;;5074292;28;20040;-69
2022/10/27 08:54:32;;;;;;;6.88;2.58;;;;;;;;;;5075886;28;20555;-69
2022/10/27 08:56:59;;;;;;;6.97;2.85;;;;;;;;;;5048809;28;20067;-69
2022/10/27 08:59:26;;;;;;;6.97;2.80;;;;;;;;;;5069531;28;20128;-70
2022/10/27 09:02:09;;;;;;;6.38;2.55;;;;;;;;;;5074456;28;20107;-69
2022/10/27 09:04:43;;;;;;;10.48;4.43;;;;;;;;;;5070157;28;20071;-69
2022/10/27 09:07:15;;;;;;;5.80;3.42;;;;;;;;;;5077376;28;20527;-69
2022/10/27 09:09:48;;;;;;;6.15;2.20;;;;;;;;;;5052014;28;20051;-68
2022/10/27 09:12:14;;;;;;;6.25;2.80;;;;;;;;;;5077620;28;20530;-69
2022/10/27 09:14:59;;;;;;;9.45;2.97;;;;;;;;;;5073205;28;20346;-69
2022/10/27 09:17:40;;;;;;;6.68;2.53;;;;;;;;;;5077027;28;20060;-69
2022/10/27 09:20:08;;;;;;;5.63;2.80;;;;;;;;;;5076411;28;20589;-69
2022/10/27 09:22:36;;;;;;;11.15;2.55;;;;;;;;;;5078818;28;20636;-69
2022/10/27 09:25:06;;;;;;;8.90;2.75;;;;;;;;;;5076320;28;20045;-70
2022/10/27 09:27:34;;;;;;;3.55;2.15;;;;;;;;;;5080896;28;20099;-69
2022/10/27 09:30:04;;;;;;;8.02;3.47;;;;;;;;;;5079880;28;20099;-69
2022/10/27 09:32:31;;;;;;;8.15;3.30;;;;;;;;;;5055573;28;20049;-69
2022/10/27 09:35:01;;;;;;;7.22;2.67;;;;;;;;;;5057702;28;20207;-69
2022/10/27 09:37:28;;;;;;;6.43;2.05;;;;;;;;;;5049014;28;20048;-69
2022/10/27 09:39:56;;;;;;;8.82;3.17;;;;;;;;;;5057493;28;20041;-69
2022/10/27 09:42:23;;;;;;;5.32;2.30;;;;;;;;;;5054744;28;20614;-69
2022/10/27 09:44:59;;;;;;;5.07;3.03;;;;;;;;;;5058007;28;20072;-69
2022/10/27 09:47:27;;;;;;;9.20;3.33;;;;;;;;;;5039830;28;20584;-69
2022/10/27 09:49:53;;;;;;;6.43;2.97;;;;;;;;;;5041951;28;20043;-69
2022/10/27 09:52:23;;;;;;;7.03;2.45;;;;;;;;;;5056590;28;20063;-69
2022/10/27 09:54:57;;;;;;;6.90;3.05;;;;;;;;;;5041060;28;20045;-78
2022/10/27 09:57:28;;;;;;;8.10;2.72;;;;;;;;;;5043349;28;20045;-69
2022/10/27 10:00:01;;;;;;;13.43;2.65;;;;;;;;;;5059379;28;20044;-69
2022/10/27 10:02:28;;;;;;;5.50;2.88;;;;;;;;;;5034220;28;20045;-69
2022/10/27 10:04:55;;;;;;;6.03;2.80;;;;;;;;;;5057373;28;20474;-69
2022/10/27 10:07:30;;;;;;;6.97;3.10;;;;;;;;;;5034111;28;20052;-69
2022/10/27 10:10:01;;;;;;;5.78;2.40;;;;;;;;;;5058572;28;20041;-69
2022/10/27 10:12:27;;;;;;;5.93;2.70;;;;;;;;;;5035955;28;20904;-69
2022/10/27 10:15:11;;;;;;;5.55;2.75;;;;;;;;;;5035656;28;20060;-70
2022/10/27 10:18:04;;;;;;;6.22;2.55;;;;;;;;;;5035205;28;20032;-69
2022/10/27 10:20:39;;;;;;;9.13;2.50;;;;;;;;;;5032169;28;20057;-69
2022/10/27 10:23:11;;;;;;;7.97;3.35;;;;;;;;;;5058409;28;20030;-70
2022/10/27 10:25:46;;;;;;;4.65;2.70;;;;;;;;;;5047793;28;20045;-69
2022/10/27 10:28:17;;;;;;;7.18;2.58;;;;;;;;;;5058960;28;20037;-70
2022/10/27 10:30:48;;;;;;;5.43;3.10;;;;;;;;;;5041724;28;20094;-69
2022/10/27 10:33:15;;;;;;;5.47;3.60;;;;;;;;;;5052215;28;20708;-69
2022/10/27 10:35:41;;;;;;;9.18;4.25;;;;;;;;;;5059571;28;20523;-70
2022/10/27 10:38:30;;;;;;;5.82;2.58;;;;;;;;;;5076320;28;20041;-73
2022/10/27 10:41:10;;;;;;;5.57;2.70;;;;;;;;;;5057491;28;20914;-71
2022/10/27 10:43:36;;;;;;;4.97;2.50;;;;;;;;;;5053616;28;20036;-72
2022/10/27 10:46:03;;;;;;;5.78;2.92;;;;;;;;;;5079372;28;20160;-71
2022/10/27 10:48:31;;;;;;;11.70;3.92;;;;;;;;;;5069385;28;20523;-72
2022/10/27 10:50:58;;;;;;;9.90;3.28;;;;;;;;;;5056819;28;20033;-71
2022/10/27 10:53:27;;;;;;;10.00;3.58;;;;;;;;;;5053077;28;20115;-71
2022/10/27 10:55:54;;;;;;;4.22;2.75;;;;;;;;;;5059451;28;20036;-71
2022/10/27 10:58:21;;;;;;;10.13;3.10;;;;;;;;;;5076656;28;20043;-71
2022/10/27 11:01:06;;;;;;;8.50;2.88;;;;;;;;;;5068542;28;20045;-71
2022/10/27 11:03:34;;;;;;;7.78;2.88;;;;;;;;;;5076210;28;20051;-71
2022/10/27 11:06:02;;;;;;;6.63;3.58;;;;;;;;;;5051927;28;20048;-71
2022/10/27 11:08:38;;;;;;;10.63;2.50;;;;;;;;;;5076981;28;20561;-70
2022/10/27 11:11:05;;;;;;;7.28;3.00;;;;;;;;;;5055412;28;20123;-69
2022/10/27 11:13:38;;;;;;;8.98;3.30;;;;;;;;;;5076533;28;20131;-70
2022/10/27 11:16:06;;;;;;;9.45;3.45;;;;;;;;;;5075845;28;20474;-70
2022/10/27 11:18:43;;;;;;;12.23;3.88;;;;;;;;;;5075099;28;20572;-69
2022/10/27 11:21:09;;;;;;;8.77;4.03;;;;;;;;;;5055634;28;20131;-70
2022/10/27 11:23:42;;;;;;;11.63;3.30;;;;;;;;;;5075538;28;20625;-70
2022/10/27 11:26:08;;;;;;;6.70;3.33;;;;;;;;;;5073147;28;20044;-70
2022/10/27 11:28:41;;;;;;;12.32;3.28;;;;;;;;;;5075194;28;20041;-69
2022/10/27 11:31:07;;;;;;;13.02;3.42;;;;;;;;;;5074884;28;20044;-69
2022/10/27 11:33:42;;;;;;;7.03;3.17;;;;;;;;;;5062505;28;20102;-69
2022/10/27 11:36:23;;;;;;;6.32;3.17;;;;;;;;;;5053637;28;20045;-69
2022/10/27 11:38:56;;;;;;;8.25;3.10;;;;;;;;;;5053026;28;20983;-69
2022/10/27 11:41:22;;;;;;;6.07;3.17;;;;;;;;;;5057315;28;20041;-69
2022/10/27 11:43:55;;;;;;;7.63;4.20;;;;;;;;;;5050636;28;20037;-69
2022/10/27 11:46:26;;;;;;;11.90;2.78;;;;;;;;;;5057145;28;20077;-69
2022/10/27 11:49:01;;;;;;;7.22;3.55;;;;;;;;;;5056309;28;20041;-69
2022/10/27 11:51:31;;;;;;;6.47;3.50;;;;;;;;;;5032164;28;20037;-69
2022/10/27 11:53:57;;;;;;;11.80;2.63;;;;;;;;;;5055970;28;20036;-69
2022/10/27 11:56:26;;;;;;;9.13;3.55;;;;;;;;;;5048851;28;20044;-69
2022/10/27 11:59:11;;;;;;;6.57;2.92;;;;;;;;;;5054857;28;20048;-69
2022/10/27 12:01:51;;;;;;;10.05;3.22;;;;;;;;;;5056775;28;20045;-69
2022/10/27 12:04:30;;;;;;;8.77;3.97;;;;;;;;;;5056282;28;20041;-69
2022/10/27 12:06:57;;;;;;;5.53;2.83;;;;;;;;;;5053912;28;20051;-69
2022/10/27 12:09:46;;;;;;;7.47;3.05;;;;;;;;;;5054054;28;20079;-70
2022/10/27 12:12:15;;;;;;;6.60;3.30;;;;;;;;;;5023763;28;20049;-69
2022/10/27 12:14:50;;;;;;;10.82;4.22;;;;;;;;;;5051868;28;20037;-69
2022/10/27 12:17:20;;;;;;;5.43;3.58;;;;;;;;;;5057040;28;20084;-69
2022/10/27 12:19:47;;;;;;;7.40;3.33;;;;;;;;;;5057204;28;20041;-69
2022/10/27 12:22:19;;;;;;;10.30;4.15;;;;;;;;;;5056221;28;20625;-69
2022/10/27 12:24:52;;;;;;;10.00;4.63;;;;;;;;;;5039782;28;20049;-69
2022/10/27 12:27:24;;;;;;;12.93;4.07;;;;;;;;;;5056479;28;20041;-70
2022/10/27 12:29:52;;;;;;;9.43;3.45;;;;;;;;;;5037517;28;20044;-69
2022/10/27 12:32:26;;;;;;;12.43;4.20;;;;;;;;;;5036312;28;20116;-69
2022/10/27 12:35:03;;;;;;;10.32;3.60;;;;;;;;;;5054136;28;20568;-69
2022/10/27 12:37:35;;;;;;;8.32;2.72;;;;;;;;;;5037147;28;21216;-69
2022/10/27 12:40:01;;;;;;;;;;;;;;;;;;5056009;28;20056;-69
2022/10/27 12:42:27;;;;;;;7.40;3.33;;;;;;;;;;5056181;28;19921;-69
2022/10/27 12:44:55;;;;;;;10.30;3.97;;;;;;;;;;5056017;28;20052;-69
2022/10/27 12:47:33;;;;;;;10.60;5.18;;;;;;;;;;5054008;28;20041;-68
2022/10/27 12:50:07;;;;;;;11.45;4.22;;;;;;;;;;5037813;28;20048;-69
2022/10/27 13:09:47;;;;;;;9.48;3.92;;;;;;;;;;5134855;27;20475;-76
2022/10/27 13:12:35;;;;;;;7.90;3.05;;;;;;;;;;5130050;27;20048;-75
2022/10/27 13:15:04;;;;;;;8.07;3.10;;;;;;;;;;5145206;27;20261;-76
2022/10/27 13:17:49;;;;;;;11.57;3.25;;;;;;;;;;5143238;27;20039;-76
2022/10/27 13:20:33;;;;;;;10.80;4.40;;;;;;;;;;5141848;27;20039;-76
2022/10/27 13:23:05;;;;;;;8.32;3.58;;;;;;;;;;5143162;27;20075;-76
2022/10/27 13:25:36;;;;;;;12.85;4.07;;;;;;;;;;5124935;27;20035;-76
2022/10/27 13:28:13;;;;;;;12.45;4.88;;;;;;;;;;5157749;27;20051;-75
2022/10/27 13:30:41;;;;;;;11.32;5.25;;;;;;;;;;5141034;27;20046;-76
2022/10/27 13:33:27;;;;;;;8.60;3.90;;;;;;;;;;5153532;27;20047;-76
2022/10/27 13:36:13;;;;;;;7.53;3.40;;;;;;;;;;5156047;27;22081;-75
2022/10/27 13:38:39;;;;;;;11.75;4.15;;;;;;;;;;5154454;27;20050;-76
2022/10/27 13:41:05;;;;;;;21.08;5.78;;;;;;;;;;5141689;27;20030;-75
2022/10/27 13:43:34;;;;;;;6.40;3.25;;;;;;;;;;5143666;27;20092;-75
2022/10/27 13:46:00;;;;;;;10.50;3.35;;;;;;;;;;5124920;27;20185;-76
2022/10/27 13:48:26;;;;;;;10.35;4.13;;;;;;;;;;5125793;27;20043;-76
2022/10/27 13:50:57;;;;;;;7.72;3.58;;;;;;;;;;5142571;27;20110;-76
2022/10/27 13:53:24;;;;;;;11.60;4.40;;;;;;;;;;5142085;27;20538;-76
2022/10/27 13:55:52;;;;;;;10.20;3.65;;;;;;;;;;5142824;27;20039;-76
2022/10/27 13:58:21;;;;;;;8.88;4.00;;;;;;;;;;5142371;27;20522;-76
2022/10/27 14:00:56;;;;;;;7.93;3.78;;;;;;;;;;5143273;27;20573;-76
2022/10/27 14:03:29;;;;;;;7.63;3.65;;;;;;;;;;5142494;27;20468;-76
2022/10/27 14:05:55;;;;;;;17.30;4.47;;;;;;;;;;5140172;27;20555;-77
2022/10/27 14:08:31;;;;;;;9.10;3.33;;;;;;;;;;5156551;27;20069;-76
2022/10/27 14:10:59;;;;;;;10.35;4.47;;;;;;;;;;5129264;27;20097;-77
2022/10/27 14:13:38;;;;;;;10.95;4.18;;;;;;;;;;5142807;27;20604;-77
2022/10/27 14:16:05;;;;;;;9.60;4.35;;;;;;;;;;5111799;27;20032;-77
2022/10/27 14:18:31;;;;;;;12.23;3.42;;;;;;;;;;5127945;27;20526;-77
2022/10/27 14:21:11;;;;;;;8.05;3.92;;;;;;;;;;5141065;27;20484;-76
2022/10/27 14:23:37;;;;;;;7.55;3.45;;;;;;;;;;5125958;27;20043;-77
2022/10/27 14:26:23;;;;;;;8.10;3.28;;;;;;;;;;5111580;27;20040;-77
2022/10/27 14:28:49;;;;;;;10.02;4.22;;;;;;;;;;5146061;27;20626;-77
2022/10/27 14:31:20;;;;;;;8.30;4.13;;;;;;;;;;5111888;27;20506;-77
2022/10/27 14:33:50;;;;;;;9.30;3.72;;;;;;;;;;5144596;27;20039;-77
2022/10/27 14:36:33;;;;;;;9.50;4.28;;;;;;;;;;5143669;27;20077;-76
2022/10/27 14:39:15;;;;;;;12.32;4.53;;;;;;;;;;5126807;27;20064;-76
2022/10/27 14:41:45;;;;;;;8.70;4.50;;;;;;;;;;5111756;27;20039;-77
2022/10/27 14:44:32;;;;;;;11.07;4.43;;;;;;;;;;5143688;27;20032;-76
2022/10/27 14:47:00;;;;;;;9.25;4.40;;;;;;;;;;5111350;27;20915;-77
2022/10/27 14:49:31;;;;;;;6.90;3.42;;;;;;;;;;5142913;27;20059;-76
2022/10/27 14:52:00;;;;;;;7.35;3.65;;;;;;;;;;5128315;27;20047;-77
2022/10/27 14:54:27;;;;;;;4.50;3.28;;;;;;;;;;5128582;27;20517;-77
2022/10/27 14:56:53;;;;;;;10.45;3.65;;;;;;;;;;5143592;27;20039;-76
2022/10/27 14:59:28;;;;;;;14.18;4.22;;;;;;;;;;5126674;27;20544;-77
2022/10/27 15:01:55;;;;;;;11.98;4.15;;;;;;;;;;5127725;27;20063;-76
2022/10/27 15:04:22;;;;;;;8.40;4.32;;;;;;;;;;5128493;27;20089;-77
2022/10/27 15:06:49;;;;;;;15.85;4.78;;;;;;;;;;5109395;27;20074;-77
2022/10/27 15:09:21;;;;;;;11.20;5.53;;;;;;;;;;5106991;27;20455;-77